Time;durP1;ratioP1;P1;durP2;ratioP2;P2;SDS_P1;SDS_P2;PMS_P1;PMS_P2;Temp;Humidity;BMP_temperature;BMP_pressure;BME280_temperature;BME280_humidity;BME280_pressure;Samples;Min_cycle;Max_cycle;Signal;HPM_P1;HPM_P2
2024/04/17 00:01:02;;;;;;;6.13;3.77;;;;;;;;;;5345312;26;20469;-89
2024/04/17 00:03:38;;;;;;;4.60;3.10;;;;;;;;;;5337578;26;20578;-88
2024/04/17 00:06:08;;;;;;;7.40;2.90;;;;;;;;;;5335016;26;20941;-87
2024/04/17 00:08:36;;;;;;;5.33;3.20;;;;;;;;;;5346014;26;20479;-89
2024/04/17 00:11:03;;;;;;;6.77;3.40;;;;;;;;;;5339239;26;20527;-88
2024/04/17 00:13:31;;;;;;;3.70;3.10;;;;;;;;;;5345564;26;20516;-88
2024/04/17 00:16:02;;;;;;;6.43;2.90;;;;;;;;;;5347876;26;20468;-89
2024/04/17 00:18:30;;;;;;;8.40;3.33;;;;;;;;;;5346155;26;20503;-89
2024/04/17 00:20:58;;;;;;;6.37;3.20;;;;;;;;;;5343424;26;20484;-84
2024/04/17 00:23:25;;;;;;;4.30;2.70;;;;;;;;;;5345034;26;20544;-88
2024/04/17 00:25:53;;;;;;;5.23;3.13;;;;;;;;;;5346918;26;20480;-90
2024/04/17 00:28:21;;;;;;;7.17;3.70;;;;;;;;;;5347786;26;20547;-87
2024/04/17 00:30:48;;;;;;;7.73;3.87;;;;;;;;;;5347955;26;20536;-86
2024/04/17 00:33:16;;;;;;;7.17;2.57;;;;;;;;;;5348521;26;20583;-89
2024/04/17 00:35:43;;;;;;;6.10;3.00;;;;;;;;;;5347666;26;20557;-89
2024/04/17 00:38:11;;;;;;;3.43;2.70;;;;;;;;;;5348951;26;20472;-88
2024/04/17 00:40:41;;;;;;;7.83;3.73;;;;;;;;;;5349683;26;20559;-87
2024/04/17 00:43:08;;;;;;;6.23;3.00;;;;;;;;;;5347496;26;20579;-89
2024/04/17 00:45:40;;;;;;;8.00;2.83;;;;;;;;;;5346720;26;20526;-86
2024/04/17 00:48:12;;;;;;;6.73;3.70;;;;;;;;;;5348672;26;20483;-86
2024/04/17 00:50:46;;;;;;;4.83;3.13;;;;;;;;;;5349922;26;20475;-88
2024/04/17 00:53:25;;;;;;;6.73;2.80;;;;;;;;;;5348225;26;20512;-88
2024/04/17 00:55:53;;;;;;;10.07;2.60;;;;;;;;;;5349039;26;20552;-88
2024/04/17 00:58:23;;;;;;;4.67;2.77;;;;;;;;;;5349542;26;20464;-88
2024/04/17 01:00:52;;;;;;;4.20;2.60;;;;;;;;;;5348616;26;20472;-85
2024/04/17 01:03:19;;;;;;;3.03;1.80;;;;;;;;;;5346708;26;20503;-87
2024/04/17 01:05:47;;;;;;;6.80;2.60;;;;;;;;;;5348141;26;20530;-86
2024/04/17 01:08:17;;;;;;;10.07;2.83;;;;;;;;;;5348891;26;20474;-86
2024/04/17 01:10:57;;;;;;;4.93;2.33;;;;;;;;;;5347917;26;20468;-86
2024/04/17 01:13:25;;;;;;;6.20;2.20;;;;;;;;;;5348198;26;20583;-85
2024/04/17 01:15:52;;;;;;;12.27;2.73;;;;;;;;;;5340470;26;20527;-86
2024/04/17 01:18:20;;;;;;;7.13;2.33;;;;;;;;;;5348301;26;20478;-88
2024/04/17 01:20:48;;;;;;;4.40;2.37;;;;;;;;;;5336107;26;20467;-85
2024/04/17 01:23:15;;;;;;;4.73;2.07;;;;;;;;;;5327708;26;20510;-87
2024/04/17 01:25:43;;;;;;;5.80;1.90;;;;;;;;;;5328728;26;20469;-89
2024/04/17 01:28:10;;;;;;;4.47;2.83;;;;;;;;;;5331738;26;20464;-86
2024/04/17 01:30:38;;;;;;;4.77;2.13;;;;;;;;;;5329844;26;20543;-87
2024/04/17 01:33:05;;;;;;;11.47;2.87;;;;;;;;;;5327000;26;21205;-88
2024/04/17 01:35:35;;;;;;;5.43;2.20;;;;;;;;;;5327964;26;20580;-86
2024/04/17 01:38:03;;;;;;;11.00;2.53;;;;;;;;;;5332637;26;21030;-85
2024/04/17 01:40:30;;;;;;;6.00;3.00;;;;;;;;;;5330519;26;20483;-87
2024/04/17 01:43:00;;;;;;;5.10;2.03;;;;;;;;;;5331247;26;20487;-89
2024/04/17 01:45:28;;;;;;;3.83;2.07;;;;;;;;;;5330397;26;20515;-85
2024/04/17 01:47:56;;;;;;;4.73;1.77;;;;;;;;;;5330976;26;20776;-86
2024/04/17 01:50:28;;;;;;;5.83;2.33;;;;;;;;;;5330707;26;20476;-86
2024/04/17 01:52:56;;;;;;;10.53;2.30;;;;;;;;;;5330631;26;20488;-84
2024/04/17 01:55:24;;;;;;;9.70;2.50;;;;;;;;;;5331419;26;20828;-85
2024/04/17 01:57:51;;;;;;;10.13;2.17;;;;;;;;;;5331243;26;20487;-86
2024/04/17 02:00:19;;;;;;;4.63;2.43;;;;;;;;;;5333866;26;20468;-86
2024/04/17 02:02:49;;;;;;;5.97;2.33;;;;;;;;;;5360415;26;20563;-87
2024/04/17 02:05:17;;;;;;;4.80;2.13;;;;;;;;;;5331637;26;20615;-87
2024/04/17 02:07:45;;;;;;;7.50;3.20;;;;;;;;;;5329430;26;20476;-86
2024/04/17 02:10:12;;;;;;;8.70;3.00;;;;;;;;;;5332672;26;20601;-86
2024/04/17 02:12:40;;;;;;;6.90;2.10;;;;;;;;;;5331671;26;20554;-86
2024/04/17 02:15:08;;;;;;;3.10;2.20;;;;;;;;;;5334094;26;20551;-87
2024/04/17 02:17:35;;;;;;;4.90;2.43;;;;;;;;;;5333880;26;20522;-87
2024/04/17 02:20:05;;;;;;;5.30;2.47;;;;;;;;;;5336095;26;20484;-86
2024/04/17 02:22:33;;;;;;;9.43;2.10;;;;;;;;;;5342784;26;20480;-87
2024/04/17 02:25:03;;;;;;;3.40;2.20;;;;;;;;;;5335355;26;20563;-86
2024/04/17 02:27:30;;;;;;;3.83;1.70;;;;;;;;;;5335935;26;20570;-85
2024/04/17 02:29:58;;;;;;;4.80;2.03;;;;;;;;;;5316173;26;20552;-87
2024/04/17 02:32:25;;;;;;;5.03;1.73;;;;;;;;;;5355816;26;20464;-88
2024/04/17 02:34:53;;;;;;;4.33;1.50;;;;;;;;;;5353294;26;20479;-88
2024/04/17 02:37:21;;;;;;;5.63;1.63;;;;;;;;;;5343431;26;20515;-88
2024/04/17 02:39:49;;;;;;;4.13;2.03;;;;;;;;;;5340431;26;20476;-86
2024/04/17 02:42:21;;;;;;;6.77;2.33;;;;;;;;;;5334622;26;20476;-86
2024/04/17 02:44:48;;;;;;;7.10;1.70;;;;;;;;;;5335097;26;20468;-87
2024/04/17 02:47:16;;;;;;;4.03;1.60;;;;;;;;;;5326569;26;20526;-86
2024/04/17 02:49:44;;;;;;;7.40;1.80;;;;;;;;;;5345996;26;20475;-84
2024/04/17 02:52:12;;;;;;;3.90;2.07;;;;;;;;;;5357016;26;20453;-87
2024/04/17 02:54:44;;;;;;;7.40;1.80;;;;;;;;;;5353710;26;20512;-85
2024/04/17 02:57:12;;;;;;;8.03;2.10;;;;;;;;;;5355954;26;20463;-88
2024/04/17 02:59:39;;;;;;;4.17;2.20;;;;;;;;;;5350142;26;20548;-88
2024/04/17 03:02:06;;;;;;;8.57;2.50;;;;;;;;;;5344575;26;20471;-84
2024/04/17 03:04:35;;;;;;;6.40;2.27;;;;;;;;;;5340107;26;22152;-88
2024/04/17 03:07:03;;;;;;;6.80;2.23;;;;;;;;;;5341851;26;20537;-87
2024/04/17 03:09:35;;;;;;;7.90;2.80;;;;;;;;;;5343717;26;20484;-85
2024/04/17 03:12:03;;;;;;;5.40;2.13;;;;;;;;;;5344880;26;20464;-87
2024/04/17 03:14:34;;;;;;;5.53;1.90;;;;;;;;;;5345110;26;20494;-87
2024/04/17 03:17:01;;;;;;;4.10;1.60;;;;;;;;;;5341849;26;20471;-84
2024/04/17 03:19:29;;;;;;;6.90;1.80;;;;;;;;;;5343813;26;20476;-85
2024/04/17 03:21:56;;;;;;;5.77;1.93;;;;;;;;;;5342173;26;20472;-87
2024/04/17 03:24:25;;;;;;;6.90;2.63;;;;;;;;;;5336555;26;20534;-86
2024/04/17 03:26:54;;;;;;;4.40;1.50;;;;;;;;;;5336347;26;20881;-87
2024/04/17 03:29:22;;;;;;;3.63;2.47;;;;;;;;;;5359922;26;20471;-88
2024/04/17 03:31:49;;;;;;;5.20;2.30;;;;;;;;;;5355425;26;20541;-89
2024/04/17 03:34:17;;;;;;;5.50;2.73;;;;;;;;;;5351517;26;20507;-87
2024/04/17 03:36:45;;;;;;;5.23;2.00;;;;;;;;;;5368201;26;20559;-85
2024/04/17 03:39:13;;;;;;;6.97;2.73;;;;;;;;;;5335682;26;20557;-89
2024/04/17 03:41:40;;;;;;;3.30;2.07;;;;;;;;;;5337110;26;20555;-88
2024/04/17 03:44:11;;;;;;;9.50;2.50;;;;;;;;;;5335474;26;20480;-87
2024/04/17 03:46:38;;;;;;;3.27;1.83;;;;;;;;;;5335851;26;20468;-87
2024/04/17 03:49:05;;;;;;;6.27;2.43;;;;;;;;;;5333306;26;20476;-86
2024/04/17 03:51:33;;;;;;;4.30;2.40;;;;;;;;;;5332471;26;20543;-86
2024/04/17 03:54:01;;;;;;;6.70;2.40;;;;;;;;;;5331989;26;20539;-87
2024/04/17 03:56:29;;;;;;;6.30;2.27;;;;;;;;;;5333666;26;20610;-84
2024/04/17 03:58:57;;;;;;;6.60;2.10;;;;;;;;;;5333437;26;20480;-87
2024/04/17 04:01:26;;;;;;;4.60;2.53;;;;;;;;;;5333588;26;20471;-87
2024/04/17 04:03:53;;;;;;;7.67;3.10;;;;;;;;;;5331751;26;20484;-87
2024/04/17 04:06:20;;;;;;;4.53;2.60;;;;;;;;;;5334932;26;20591;-86
2024/04/17 04:08:48;;;;;;;7.63;2.57;;;;;;;;;;5337579;26;20476;-88
2024/04/17 04:11:16;;;;;;;6.60;2.10;;;;;;;;;;5330408;26;21014;-84
2024/04/17 04:13:43;;;;;;;5.20;1.97;;;;;;;;;;5332274;26;20563;-85
2024/04/17 04:16:11;;;;;;;7.00;3.27;;;;;;;;;;5334022;26;20539;-85
2024/04/17 04:18:38;;;;;;;7.13;2.73;;;;;;;;;;5362201;26;20591;-87
2024/04/17 04:21:06;;;;;;;6.60;2.73;;;;;;;;;;5333278;26;20540;-87
2024/04/17 04:23:35;;;;;;;8.70;2.73;;;;;;;;;;5330418;26;20492;-86
2024/04/17 04:26:06;;;;;;;9.27;2.77;;;;;;;;;;5331137;26;20476;-87
2024/04/17 04:28:34;;;;;;;5.57;2.67;;;;;;;;;;5331669;26;20468;-88
2024/04/17 04:31:01;;;;;;;6.00;2.77;;;;;;;;;;5337689;26;20484;-86
2024/04/17 04:33:28;;;;;;;5.10;3.50;;;;;;;;;;5336831;26;20480;-87
2024/04/17 04:35:56;;;;;;;6.40;2.43;;;;;;;;;;5339093;26;20476;-85
2024/04/17 04:38:24;;;;;;;4.50;2.07;;;;;;;;;;5335852;26;20472;-83
2024/04/17 04:40:51;;;;;;;10.90;3.07;;;;;;;;;;5360725;26;20479;-88
2024/04/17 04:43:19;;;;;;;9.63;3.33;;;;;;;;;;5349218;26;20468;-90
2024/04/17 04:45:46;;;;;;;5.27;2.37;;;;;;;;;;5353068;26;20502;-86
2024/04/17 04:48:14;;;;;;;6.03;3.10;;;;;;;;;;5384364;26;20514;-87
2024/04/17 04:50:41;;;;;;;5.03;2.63;;;;;;;;;;5356664;26;20472;-88
2024/04/17 04:53:09;;;;;;;7.13;2.50;;;;;;;;;;5356402;26;20578;-90
2024/04/17 04:55:37;;;;;;;6.27;3.13;;;;;;;;;;5346795;26;20467;-87
2024/04/17 04:58:04;;;;;;;4.80;2.23;;;;;;;;;;5316778;26;20480;-86
2024/04/17 05:00:32;;;;;;;5.23;2.30;;;;;;;;;;5344072;26;20562;-87
2024/04/17 05:02:59;;;;;;;4.87;2.50;;;;;;;;;;5345569;26;20476;-84
2024/04/17 05:05:29;;;;;;;11.23;2.20;;;;;;;;;;5350302;26;20476;-85
2024/04/17 05:07:57;;;;;;;3.30;2.23;;;;;;;;;;5344761;26;20464;-87
2024/04/17 05:10:25;;;;;;;4.00;2.37;;;;;;;;;;5354975;26;20460;-86
2024/04/17 05:12:54;;;;;;;2.80;1.90;;;;;;;;;;5360489;26;20563;-89
2024/04/17 05:15:21;;;;;;;3.33;2.37;;;;;;;;;;5358736;26;20471;-88
2024/04/17 05:17:49;;;;;;;4.30;1.87;;;;;;;;;;5352560;26;20463;-87
2024/04/17 05:20:17;;;;;;;4.37;2.50;;;;;;;;;;5352056;26;20468;-85
2024/04/17 05:22:47;;;;;;;5.33;2.33;;;;;;;;;;5351136;26;20472;-87
2024/04/17 05:25:19;;;;;;;3.63;2.30;;;;;;;;;;5374862;26;20583;-86
2024/04/17 05:27:47;;;;;;;8.30;3.47;;;;;;;;;;5345053;26;20687;-88
2024/04/17 05:30:18;;;;;;;11.20;3.30;;;;;;;;;;5341236;26;20476;-89
2024/04/17 05:32:49;;;;;;;5.30;3.13;;;;;;;;;;5340159;26;20535;-89
2024/04/17 05:35:21;;;;;;;6.27;4.07;;;;;;;;;;5341667;26;20475;-87
2024/04/17 05:37:48;;;;;;;6.97;4.20;;;;;;;;;;5340651;26;20472;-86
2024/04/17 05:40:19;;;;;;;7.93;4.20;;;;;;;;;;5340227;26;20472;-89
2024/04/17 05:42:48;;;;;;;8.37;4.00;;;;;;;;;;5340120;26;20488;-87
2024/04/17 05:45:16;;;;;;;9.57;4.53;;;;;;;;;;5340833;26;20971;-89
2024/04/17 05:47:44;;;;;;;7.10;4.80;;;;;;;;;;5340757;26;20479;-86
2024/04/17 05:50:11;;;;;;;14.23;7.60;;;;;;;;;;5337660;26;20516;-88
2024/04/17 05:52:40;;;;;;;12.13;6.80;;;;;;;;;;5340997;26;20472;-89
2024/04/17 05:55:08;;;;;;;9.20;6.17;;;;;;;;;;5351689;26;20561;-88
2024/04/17 05:57:36;;;;;;;7.90;5.83;;;;;;;;;;5346362;26;20532;-86
2024/04/17 06:00:05;;;;;;;8.00;6.13;;;;;;;;;;5339793;26;20484;-87
2024/04/17 06:02:33;;;;;;;8.90;5.90;;;;;;;;;;5342760;26;20472;-87
2024/04/17 06:05:00;;;;;;;11.97;6.13;;;;;;;;;;5337648;26;21494;-86
2024/04/17 06:07:28;;;;;;;6.83;5.50;;;;;;;;;;5337237;26;20539;-86
2024/04/17 06:09:57;;;;;;;10.73;6.63;;;;;;;;;;5338489;26;20524;-86
2024/04/17 06:12:24;;;;;;;8.63;6.10;;;;;;;;;;5336761;26;20969;-85
2024/04/17 06:14:52;;;;;;;9.83;6.27;;;;;;;;;;5338993;26;20475;-88
2024/04/17 06:17:21;;;;;;;6.57;5.97;;;;;;;;;;5349875;26;20504;-87
2024/04/17 06:19:55;;;;;;;8.47;6.20;;;;;;;;;;5351252;26;20456;-86
2024/04/17 06:22:23;;;;;;;17.13;10.60;;;;;;;;;;5351641;26;20528;-88
2024/04/17 06:24:58;;;;;;;9.23;6.80;;;;;;;;;;5342108;26;20468;-87
2024/04/17 06:27:31;;;;;;;10.60;6.80;;;;;;;;;;5340880;26;20488;-86
2024/04/17 06:30:01;;;;;;;14.27;6.50;;;;;;;;;;5338465;26;20526;-86
2024/04/17 06:32:28;;;;;;;8.57;6.20;;;;;;;;;;5338542;26;20468;-86
2024/04/17 06:34:58;;;;;;;10.90;7.57;;;;;;;;;;5344290;26;20467;-88
2024/04/17 06:37:26;;;;;;;9.50;7.40;;;;;;;;;;5371217;26;20496;-86
2024/04/17 06:39:56;;;;;;;10.43;6.97;;;;;;;;;;5365549;26;20540;-87
2024/04/17 06:42:24;;;;;;;7.77;6.97;;;;;;;;;;5338248;26;20480;-85
2024/04/17 06:44:55;;;;;;;10.97;6.40;;;;;;;;;;5340084;26;20468;-87
2024/04/17 06:47:22;;;;;;;9.00;6.23;;;;;;;;;;5341891;26;20564;-88
2024/04/17 06:49:50;;;;;;;11.33;6.00;;;;;;;;;;5339001;26;20483;-86
2024/04/17 06:52:18;;;;;;;10.90;6.00;;;;;;;;;;5343280;26;20991;-87
2024/04/17 06:54:49;;;;;;;7.00;5.93;;;;;;;;;;5335664;26;20469;-86
2024/04/17 06:57:17;;;;;;;11.70;6.63;;;;;;;;;;5340286;26;20484;-87
2024/04/17 06:59:48;;;;;;;10.20;6.27;;;;;;;;;;5334258;26;20579;-87
2024/04/17 07:02:16;;;;;;;11.30;5.57;;;;;;;;;;5334637;26;20530;-87
2024/04/17 07:04:44;;;;;;;8.37;6.03;;;;;;;;;;5337803;26;20484;-87
2024/04/17 07:07:12;;;;;;;8.00;6.40;;;;;;;;;;5338631;26;20472;-88
2024/04/17 07:09:54;;;;;;;9.10;5.37;;;;;;;;;;5340685;26;20472;-85
2024/04/17 07:12:23;;;;;;;7.50;4.90;;;;;;;;;;5365313;26;20880;-85
2024/04/17 07:14:53;;;;;;;7.00;4.63;;;;;;;;;;5336672;26;21460;-87
2024/04/17 07:17:21;;;;;;;5.10;4.30;;;;;;;;;;5337140;26;21011;-85
2024/04/17 07:19:49;;;;;;;9.70;5.40;;;;;;;;;;5339316;26;20475;-86
2024/04/17 07:22:18;;;;;;;10.97;5.37;;;;;;;;;;5339448;26;20460;-87
2024/04/17 07:24:49;;;;;;;7.80;5.63;;;;;;;;;;5350390;26;20532;-88
2024/04/17 07:27:17;;;;;;;10.20;6.30;;;;;;;;;;5348223;26;20468;-86
2024/04/17 07:29:45;;;;;;;9.33;6.23;;;;;;;;;;5384982;26;20442;-88
2024/04/17 07:32:26;;;;;;;9.20;6.93;;;;;;;;;;5350029;26;20458;-86
2024/04/17 07:35:07;;;;;;;9.63;7.47;;;;;;;;;;5347750;26;20536;-88
2024/04/17 07:37:37;;;;;;;14.27;6.87;;;;;;;;;;5345124;26;20514;-87
2024/04/17 07:40:08;;;;;;;7.83;6.73;;;;;;;;;;5350255;26;20539;-86
2024/04/17 07:42:38;;;;;;;6.00;5.00;;;;;;;;;;5351197;26;20572;-86
2024/04/17 07:45:09;;;;;;;6.53;5.80;;;;;;;;;;5346848;26;20570;-86
2024/04/17 07:47:40;;;;;;;6.90;6.20;;;;;;;;;;5354281;26;20531;-87
2024/04/17 07:50:08;;;;;;;6.73;5.57;;;;;;;;;;5349100;26;20807;-85
2024/04/17 07:52:35;;;;;;;6.77;5.50;;;;;;;;;;5351384;26;20613;-85
2024/04/17 07:55:05;;;;;;;5.53;4.53;;;;;;;;;;5362560;26;20547;-86
2024/04/17 07:57:32;;;;;;;5.57;3.73;;;;;;;;;;5362115;26;20500;-87
2024/04/17 08:00:03;;;;;;;3.30;2.90;;;;;;;;;;5356536;26;20548;-84
2024/04/17 08:02:31;;;;;;;5.47;3.00;;;;;;;;;;5347277;26;20566;-84
2024/04/17 08:05:01;;;;;;;2.57;2.37;;;;;;;;;;5349289;26;20517;-87
2024/04/17 08:07:37;;;;;;;8.63;2.50;;;;;;;;;;5360660;26;20502;-87
2024/04/17 08:10:13;;;;;;;2.90;2.60;;;;;;;;;;5341275;26;20648;-85
2024/04/17 08:12:47;;;;;;;2.27;2.07;;;;;;;;;;5357417;26;20525;-88
2024/04/17 08:15:20;;;;;;;1.87;1.70;;;;;;;;;;5356960;26;20503;-88
2024/04/17 08:17:49;;;;;;;1.97;1.43;;;;;;;;;;5354731;26;20556;-86
2024/04/17 08:20:18;;;;;;;2.83;1.37;;;;;;;;;;5354056;26;20521;-87
2024/04/17 08:22:52;;;;;;;7.13;1.33;;;;;;;;;;5353371;26;20533;-87
2024/04/17 08:25:21;;;;;;;2.43;1.63;;;;;;;;;;5462528;21;20561;-87
2024/04/17 08:27:51;;;;;;;1.43;1.27;;;;;;;;;;5368239;26;20516;-87
2024/04/17 08:30:20;;;;;;;1.47;1.37;;;;;;;;;;5342332;26;20538;-87
2024/04/17 08:32:49;;;;;;;3.90;1.20;;;;;;;;;;5377453;26;20648;-85
2024/04/17 08:35:19;;;;;;;1.00;0.90;;;;;;;;;;5338093;26;20564;-86
2024/04/17 08:37:49;;;;;;;1.70;1.40;;;;;;;;;;5339888;26;21002;-85
2024/04/17 08:40:16;;;;;;;2.40;1.67;;;;;;;;;;5339294;26;20468;-86
2024/04/17 08:42:52;;;;;;;1.33;1.23;;;;;;;;;;5329378;26;20530;-89
2024/04/17 08:45:27;;;;;;;1.40;1.30;;;;;;;;;;5334623;26;20468;-87
2024/04/17 08:48:11;;;;;;;3.00;2.80;;;;;;;;;;5375257;26;20492;-87
2024/04/17 08:50:42;;;;;;;3.60;1.90;;;;;;;;;;5354747;26;20471;-87
2024/04/17 08:53:18;;;;;;;2.93;2.40;;;;;;;;;;5349000;26;20539;-86
2024/04/17 08:55:49;;;;;;;1.70;1.60;;;;;;;;;;5344835;26;20460;-86
2024/04/17 08:58:19;;;;;;;1.77;1.67;;;;;;;;;;5349146;26;21047;-86
2024/04/17 09:00:52;;;;;;;3.90;2.33;;;;;;;;;;5354443;26;20488;-88
2024/04/17 09:03:27;;;;;;;2.30;1.60;;;;;;;;;;5351537;26;22231;-88
2024/04/17 09:06:02;;;;;;;2.17;1.90;;;;;;;;;;5357399;26;20527;-87
2024/04/17 09:08:32;;;;;;;2.13;1.90;;;;;;;;;;5346888;26;20751;-88
2024/04/17 09:11:11;;;;;;;2.17;1.63;;;;;;;;;;5387857;26;20470;-88
2024/04/17 09:13:57;;;;;;;2.63;1.33;;;;;;;;;;5350425;26;20522;-88
2024/04/17 09:17:06;;;;;;;1.40;1.30;;;;;;;;;;5368953;26;20476;-88
2024/04/17 10:08:49;;;;;;;3.60;1.83;;;;;;;;;;5230611;27;20871;-86
2024/04/17 10:11:48;;;;;;;3.10;1.53;;;;;;;;;;5146033;27;20546;-88
2024/04/17 10:14:31;;;;;;;2.83;1.67;;;;;;;;;;5233357;22;20511;-87
2024/04/17 10:20:48;;;;;;;2.10;1.93;;;;;;;;;;5148564;27;20482;-88
2024/04/17 10:23:35;;;;;;;4.50;2.43;;;;;;;;;;5148731;27;20494;-88
2024/04/17 10:26:19;;;;;;;3.40;2.37;;;;;;;;;;5175214;27;20672;-91
2024/04/17 10:29:02;;;;;;;2.10;2.00;;;;;;;;;;5191847;27;20479;-87
2024/04/17 10:38:46;;;;;;;2.40;2.13;;;;;;;;;;5178022;27;20528;-88
2024/04/17 10:44:21;;;;;;;2.03;1.73;;;;;;;;;;5195810;22;20573;-87
2024/04/17 10:47:17;;;;;;;;;;;;;;;;;;;;;
2024/04/17 10:50:00;;;;;;;2.80;2.27;;;;;;;;;;5188364;27;20487;-87
2024/04/17 10:52:33;;;;;;;3.83;1.80;;;;;;;;;;5178132;27;20589;-86
2024/04/17 11:02:02;;;;;;;3.73;2.10;;;;;;;;;;5176111;27;20578;-87
2024/04/17 11:23:57;;;;;;;3.13;1.97;;;;;;;;;;5167208;27;20468;-87
2024/04/17 11:26:54;;;;;;;2.47;1.60;;;;;;;;;;5138187;27;20529;-87
2024/04/17 11:29:39;;;;;;;3.20;1.83;;;;;;;;;;5141553;27;20528;-86
2024/04/17 11:32:28;;;;;;;3.17;1.60;;;;;;;;;;5152764;27;20492;-89
2024/04/17 11:35:53;;;;;;;3.23;1.83;;;;;;;;;;5158290;27;20527;-88
2024/04/17 11:38:31;;;;;;;3.87;2.20;;;;;;;;;;5111813;27;20525;-87
2024/04/17 11:41:17;;;;;;;3.13;1.73;;;;;;;;;;5066563;28;20479;-85
2024/04/17 11:43:59;;;;;;;3.67;1.90;;;;;;;;;;5165776;22;20507;-87
2024/04/17 11:46:43;;;;;;;1.97;1.73;;;;;;;;;;5222823;27;20489;-86
2024/04/17 12:12:03;;;;;;;4.37;2.17;;;;;;;;;;5119455;27;20575;-85
2024/04/17 12:14:54;;;;;;;4.57;1.73;;;;;;;;;;5161447;27;20529;-85
2024/04/17 12:21:32;;;;;;;3.40;1.70;;;;;;;;;;5137832;27;20579;-86
2024/04/17 17:30:36;;;;;;;;;;;;;;;;;;;;;
2024/04/17 17:40:38;;;;;;;4.50;3.40;;;;;;;;;;5063410;28;20571;-88
